Stations météo

Publicité
Luchon/SA, France (7724): Température de l'air & dewpoint: 20.06.2019 19:00:00 - 26.06.2019 19:00:00 (CEST)Luchon/SA, France (7724): Vitesse du vent & gusts: 20.06.2019 19:00:00 - 26.06.2019 19:00:00 (CEST)Luchon/SA, France (7724): Direction du vent: 20.06.2019 19:00:00 - 26.06.2019 19:00:00 (CEST)Luchon/SA, France (7724): Quantités de précipitations: 20.06.2019 19:00:00 - 26.06.2019 19:00:00 (CEST)
Date & Time tt [°C] td [°C] ff [km/h] ff [knt] fx [km/h] fx [knt] dd rr [mm]
26.06.2019 19:00:00 34,3 14,7 9 5 39 21 S 0,0
26.06.2019 18:00:00 35,9 12,8 4 2 37 20 NNE 0,0
26.06.2019 17:00:00 37,3 7,3 15 8 34 18 SW 0,0
26.06.2019 16:00:00 37,3 5,3 11 6 34 18 SSW 0,0
26.06.2019 15:00:00 37,2 11,2 13 7 28 15 S 0,0
26.06.2019 14:00:00 36,8 5,9 13 7 44 24 ESE -
26.06.2019 13:00:00 35,6 6,8 9 5 24 13 SE 0,0
26.06.2019 12:00:00 31,4 18,4 5 3 21 11 E 0,0
26.06.2019 11:00:00 27,4 16,1 8 4 21 11 NNE 0,0
26.06.2019 10:00:00 25,6 14,4 4 2 15 8 ENE 0,0
26.06.2019 09:00:00 23,1 13,6 2 1 18 10 S 0,0
26.06.2019 08:00:00 19,1 14,4 4 2 15 8 SSW -
26.06.2019 07:00:00 17,0 12,7 5 3 26 14 NNW 0,0
26.06.2019 06:00:00 16,5 12,6 8 4 24 13 NNE 0,0
26.06.2019 05:00:00 15,6 13,8 4 2 24 13 SSE 0,0
26.06.2019 04:00:00 15,4 14,3 4 2 16 9 N 0,0
26.06.2019 03:00:00 14,8 14,0 4 2 9 5 ESE 0,0
26.06.2019 02:00:00 15,6 14,3 2 1 5 3 SE -
26.06.2019 01:00:00 16,5 15,0 4 2 8 4 SE 0,0
26.06.2019 00:00:00 17,9 16,8 4 2 5 3 SSE 0,0
25.06.2019 23:00:00 19,4 18,2 0 0 8 4 N 0,0
25.06.2019 22:00:00 20,5 18,6 0 0 5 3 N 0,0
25.06.2019 21:00:00 22,5 19,5 2 1 5 3 S 0,0
25.06.2019 20:00:00 24,3 19,1 4 2 24 13 NW -
25.06.2019 19:00:00 26,2 19,8 9 5 31 17 N 0,0
25.06.2019 18:00:00 26,7 19,8 13 7 28 15 N 0,0
25.06.2019 17:00:00 26,8 19,9 16 9 29 16 N 0,0
25.06.2019 16:00:00 26,5 18,9 15 8 29 16 N 0,0
25.06.2019 15:00:00 25,7 18,9 16 9 29 16 N 0,0
25.06.2019 14:00:00 24,3 18,0 16 9 34 18 N -
25.06.2019 13:00:00 24,1 19,0 11 6 21 11 N 0,0
25.06.2019 12:00:00 21,3 17,3 4 2 9 5 E 0,0
25.06.2019 11:00:00 20,2 15,8 4 2 8 4 NE 0,0
25.06.2019 10:00:00 19,4 14,0 2 1 5 3 SSE 0,0
25.06.2019 09:00:00 18,2 13,7 0 0 8 4 N 0,0
25.06.2019 08:00:00 16,9 14,0 2 1 8 4 NNE -
25.06.2019 07:00:00 17,0 13,3 2 1 5 3 SSW 0,0
25.06.2019 06:00:00 17,0 12,7 0 0 9 5 N 0,0
25.06.2019 05:00:00 16,9 13,2 4 2 9 5 SSE 0,0
25.06.2019 04:00:00 17,1 13,6 2 1 9 5 WSW 0,0
25.06.2019 03:00:00 17,4 12,9 4 2 9 5 S 0,0
25.06.2019 02:00:00 17,9 13,4 4 2 8 4 S -
25.06.2019 01:00:00 17,9 14,8 4 2 5 3 SE 0,0
25.06.2019 00:00:00 17,8 16,3 2 1 5 3 SSE 0,0
24.06.2019 23:00:00 18,9 17,0 2 1 9 5 N 0,0
24.06.2019 22:00:00 20,2 17,6 0 0 5 3 N 0,0
24.06.2019 21:00:00 22,1 17,9 0 0 8 4 N 0,0
24.06.2019 20:00:00 23,7 17,4 5 3 9 5 N -
24.06.2019 19:00:00 26,3 17,9 5 3 31 17 NNW 0,0
24.06.2019 18:00:00 25,5 18,7 15 8 39 21 N 0,0
24.06.2019 17:00:00 25,4 19,5 18 10 37 20 NNE 0,0
24.06.2019 16:00:00 25,2 19,6 18 10 41 22 N 0,0
24.06.2019 15:00:00 26,1 18,5 16 9 29 16 N 0,0
24.06.2019 14:00:00 24,6 18,8 8 4 22 12 N -
24.06.2019 13:00:00 21,4 17,6 8 4 16 9 N 0,0
24.06.2019 12:00:00 21,1 17,7 8 4 18 10 N 0,0
24.06.2019 11:00:00 21,7 15,1 5 3 24 13 SE 0,0
24.06.2019 10:00:00 23,9 14,9 2 1 8 4 SE 0,0
24.06.2019 09:00:00 20,3 15,5 4 2 13 7 WNW 0,0
24.06.2019 08:00:00 17,9 14,0 4 2 13 7 ENE -
24.06.2019 07:00:00 16,7 13,6 2 1 11 6 W 0,0
24.06.2019 06:00:00 16,4 13,7 4 2 9 5 WNW 0,0
24.06.2019 05:00:00 15,8 14,2 0 0 8 4 N 0,0
24.06.2019 04:00:00 16,7 15,1 5 3 9 5 S 0,0
24.06.2019 03:00:00 17,1 15,4 2 1 8 4 WSW 0,0
24.06.2019 02:00:00 17,6 15,6 2 1 5 3 SE -
24.06.2019 01:00:00 19,5 16,3 4 2 15 8 SE 0,0
24.06.2019 00:00:00 20,7 16,9 5 3 18 10 S 0,0
23.06.2019 23:00:00 21,2 17,8 4 2 18 10 SSE 0,0
23.06.2019 22:00:00 22,3 17,9 4 2 13 7 S 0,0
23.06.2019 21:00:00 24,3 19,1 2 1 11 6 SW 0,0
23.06.2019 20:00:00 27,1 19,2 5 3 29 16 NNE -
23.06.2019 19:00:00 28,9 18,1 13 7 29 16 NNW 0,0
23.06.2019 18:00:00 29,9 17,4 13 7 35 19 N 0,0
23.06.2019 17:00:00 31,7 13,5 13 7 26 14 S 0,0
23.06.2019 16:00:00 31,5 11,3 18 10 29 16 S 0,0
23.06.2019 15:00:00 31,0 11,9 9 5 22 12 S 0,0
23.06.2019 14:00:00 30,6 10,5 8 4 29 16 S -
23.06.2019 13:00:00 28,0 16,0 4 2 9 5 S 0,0
23.06.2019 12:00:00 25,3 15,3 4 2 11 6 E 0,0
23.06.2019 11:00:00 21,6 15,9 5 3 11 6 N 0,0
23.06.2019 10:00:00 17,2 13,7 2 1 5 3 NNW 0,0
23.06.2019 09:00:00 15,5 13,3 2 1 8 4 NNE 0,0
23.06.2019 08:00:00 13,1 12,6 2 1 5 3 SSE -
23.06.2019 07:00:00 11,7 11,1 4 2 5 3 N 0,0
23.06.2019 06:00:00 11,8 11,2 5 3 11 6 W 0,0
23.06.2019 05:00:00 11,8 11,2 0 0 5 3 N 0,0
23.06.2019 04:00:00 12,2 11,6 4 2 5 3 NNE 0,0
23.06.2019 03:00:00 13,2 12,6 2 1 5 3 NNE 0,0
23.06.2019 02:00:00 13,9 12,8 0 0 8 4 N -
23.06.2019 01:00:00 15,2 13,6 4 2 15 8 NNW 0,0
23.06.2019 00:00:00 15,5 13,9 8 4 15 8 SSE 0,0
22.06.2019 23:00:00 16,0 13,8 4 2 11 6 SE 0,0
22.06.2019 22:00:00 16,7 14,2 0 0 8 4 N 0,0
22.06.2019 21:00:00 18,7 14,4 2 1 8 4 WSW 0,0
22.06.2019 20:00:00 20,7 14,1 4 2 28 15 W -
22.06.2019 19:00:00 23,2 12,8 11 6 31 17 N 0,0
22.06.2019 18:00:00 23,2 12,8 21 11 31 17 N 0,0
22.06.2019 17:00:00 23,7 13,3 15 8 28 15 N 0,0
22.06.2019 16:00:00 22,9 13,9 13 7 26 14 N 0,0
22.06.2019 15:00:00 22,3 13,4 16 9 31 17 N 0,0
22.06.2019 14:00:00 21,5 12,3 15 8 29 16 N -
22.06.2019 13:00:00 21,2 12,3 13 7 22 12 N 0,0
22.06.2019 12:00:00 20,0 12,0 4 2 13 7 NW 0,0
22.06.2019 11:00:00 18,0 12,2 4 2 11 6 S 0,0
22.06.2019 10:00:00 16,4 10,7 4 2 11 6 NE 0,0
22.06.2019 09:00:00 14,7 11,3 2 1 8 4 SE 0,0
22.06.2019 08:00:00 12,2 10,9 2 1 4 2 ESE -
22.06.2019 07:00:00 12,7 11,6 2 1 5 3 E 0,0
22.06.2019 06:00:00 12,7 11,4 0 0 4 2 N 0,0
22.06.2019 05:00:00 12,7 11,4 2 1 5 3 ENE 0,0
22.06.2019 04:00:00 12,8 11,4 2 1 8 4 NNE 0,0
22.06.2019 03:00:00 12,8 11,5 2 1 11 6 NNE 0,0
22.06.2019 02:00:00 12,9 11,6 2 1 8 4 NE -
22.06.2019 01:00:00 13,1 12,0 4 2 5 3 NE 0,0
22.06.2019 00:00:00 13,3 11,9 0 0 8 4 N 0,0
21.06.2019 23:00:00 13,4 11,3 4 2 9 5 NE 0,0
21.06.2019 22:00:00 13,4 11,5 4 2 16 9 NNE 0,0
21.06.2019 21:00:00 13,7 11,6 9 5 24 13 NNE 0,0
21.06.2019 20:00:00 14,0 11,5 11 6 22 12 N -
21.06.2019 19:00:00 14,0 11,3 11 6 24 13 NNE 0,0
21.06.2019 18:00:00 14,1 11,6 11 6 34 18 NNE 0,0
21.06.2019 17:00:00 14,1 11,4 21 11 35 19 NNE 0,0
21.06.2019 16:00:00 14,1 11,3 16 9 37 20 NNE 0,0
21.06.2019 15:00:00 15,5 11,9 13 7 44 24 N 0,0
21.06.2019 14:00:00 14,9 11,7 21 11 48 26 N -
21.06.2019 13:00:00 15,3 12,8 21 11 39 21 N 0,0
21.06.2019 12:00:00 16,3 13,8 18 10 29 16 N 0,0
21.06.2019 11:00:00 15,8 14,7 13 7 26 14 NNE 0,4
21.06.2019 10:00:00 15,8 14,7 5 3 8 4 NNE 0,0
21.06.2019 09:00:00 15,0 14,4 4 2 9 5 S 2,0
21.06.2019 08:00:00 14,6 14,1 4 2 8 4 NE -
21.06.2019 07:00:00 14,6 14,1 4 2 5 3 N 0,0
21.06.2019 06:00:00 14,5 13,9 2 1 5 3 N 0,0
21.06.2019 05:00:00 14,6 14,0 0 0 5 3 N 0,2
21.06.2019 04:00:00 14,6 14,0 2 1 11 6 ESE 0,2
21.06.2019 03:00:00 14,8 14,2 4 2 9 5 NNW 0,0
21.06.2019 02:00:00 14,8 14,0 2 1 13 7 NNW -
21.06.2019 01:00:00 15,0 14,2 4 2 9 5 NW 0,2
21.06.2019 00:00:00 14,8 14,0 4 2 8 4 ENE 2,0
20.06.2019 23:00:00 15,1 14,1 4 2 11 6 S 1,0
20.06.2019 22:00:00 15,2 14,1 2 1 16 9 N 3,0
20.06.2019 21:00:00 16,3 13,6 9 5 16 9 NNE 0,0
20.06.2019 20:00:00 16,7 13,2 8 4 16 9 N -
20.06.2019 19:00:00 16,6 13,3 5 3 22 12 ENE 0,0

tt = Température de l'air
td = dewpoint
ff = Vitesse du vent
fx = gusts
dd = Direction du vent
rr = Quantités de précipitations

stations d'obs. à proximité